Time;durP1;ratioP1;P1;durP2;ratioP2;P2;SDS_P1;SDS_P2;PMS_P1;PMS_P2;Temp;Humidity;BMP_temperature;BMP_pressure;BME280_temperature;BME280_humidity;BME280_pressure;Samples;Min_cycle;Max_cycle;Signal;HPM_P1;HPM_P2
2023/03/23 00:01:20;;;;;;;;;;;;;;;8.87;83.10;92433.81;4976830;28;19918;-77
2023/03/23 00:03:46;;;;;;;;;;;;;;;8.87;82.73;92428.59;4976567;28;19929;-77
2023/03/23 00:06:16;;;;;;;;;;;;;;;8.84;82.53;92432.56;4967678;28;20022;-77
2023/03/23 00:08:46;;;;;;;;;;;;;;;8.82;82.41;92432.03;4987403;28;20025;-77
2023/03/23 00:11:14;;;;;;;;;;;;;;;8.81;83.04;92427.13;4959735;28;19914;-77
2023/03/23 00:13:40;;;;;;;;;;;;;;;8.79;83.91;92434.44;4976429;28;20262;-77
2023/03/23 00:16:17;;;;;;;;;;;;;;;8.76;84.31;92435.78;4976457;28;19968;-77
2023/03/23 00:18:46;;;;;;;;;;;;;;;8.72;83.86;92419.88;4960548;28;19918;-77
2023/03/23 00:21:12;;;;;;;;;;;;;;;8.71;84.36;92427.97;4975089;28;19914;-77
2023/03/23 00:23:39;;;;;;;;;;;;;;;8.68;83.95;92420.72;4976487;28;19981;-77
2023/03/23 00:26:04;;;;;;;;;;;;;;;8.65;84.11;92421.28;4975145;28;19925;-77
2023/03/23 00:28:30;;;;;;;;;;;;;;;8.63;84.00;92431.97;4975200;28;19918;-77
2023/03/23 00:30:56;;;;;;;;;;;;;;;8.60;84.22;92427.31;4974974;28;19936;-77
2023/03/23 00:33:23;;;;;;;;;;;;;;;8.60;84.70;92421.28;4973618;28;19921;-77
2023/03/23 00:35:52;;;;;;;;;;;;;;;8.58;84.80;92415.56;4976191;28;20020;-77
2023/03/23 00:38:19;;;;;;;;;;;;;;;8.57;84.65;92416.63;4976153;28;20332;-77
2023/03/23 00:40:46;;;;;;;;;;;;;;;8.57;84.08;92414.03;4974608;28;20057;-77
2023/03/23 00:43:16;;;;;;;;;;;;;;;8.57;85.22;92414.03;4956798;29;19922;-77
2023/03/23 00:45:42;;;;;;;;;;;;;;;8.57;85.01;92414.03;4955270;29;19997;-77
2023/03/23 00:48:07;;;;;;;;;;;;;;;8.54;85.03;92412.75;4956630;28;19997;-77
2023/03/23 00:50:33;;;;;;;;;;;;;;;8.55;84.98;92416.91;4956530;28;20351;-77
2023/03/23 00:52:59;;;;;;;;;;;;;;;8.54;85.60;92408.31;4971279;28;20335;-77
2023/03/23 00:55:25;;;;;;;;;;;;;;;8.54;84.57;92410.13;4975827;28;19933;-77
2023/03/23 00:57:51;;;;;;;;;;;;;;;8.55;85.02;92407.22;4974344;28;20380;-77
2023/03/23 01:00:18;;;;;;;;;;;;;;;8.54;85.61;92405.69;4974489;28;19942;-77
2023/03/23 01:02:44;;;;;;;;;;;;;;;8.53;85.77;92408.56;4975309;28;19918;-77
2023/03/23 01:05:10;;;;;;;;;;;;;;;8.50;85.92;92401.31;4975701;28;19918;-77
2023/03/23 01:07:36;;;;;;;;;;;;;;;8.49;85.53;92400.53;4975620;28;20380;-77
2023/03/23 01:10:02;;;;;;;;;;;;;;;8.48;85.71;92396.34;4974327;28;19917;-77
2023/03/23 01:12:28;;;;;;;;;;;;;;;8.47;85.24;92394.03;4975435;28;19925;-77
2023/03/23 01:14:55;;;;;;;;;;;;;;;8.46;85.75;92390.63;4973710;28;19910;-76
2023/03/23 01:17:20;;;;;;;;;;;;;;;8.44;86.26;92389.34;4975545;28;19925;-76
2023/03/23 01:19:46;;;;;;;;;;;;;;;8.41;86.78;92380.25;4975828;28;19918;-77
2023/03/23 01:22:12;;;;;;;;;;;;;;;8.41;86.29;92382.84;4975764;28;19918;-76
2023/03/23 01:24:37;;;;;;;;;;;;;;;8.41;86.22;92380.25;4975046;28;19914;-77
2023/03/23 01:27:06;;;;;;;;;;;;;;;8.41;86.27;92384.69;4975489;28;19921;-77
2023/03/23 01:29:35;;;;;;;;;;;;;;;8.41;86.04;92379.47;4973746;28;20003;-77
2023/03/23 01:32:01;;;;;;;;;;;;;;;8.40;86.70;92370.88;4975537;28;20052;-77
2023/03/23 01:34:26;;;;;;;;;;;;;;;8.40;86.21;92372.66;4989959;28;19989;-77
2023/03/23 01:36:52;;;;;;;;;;;;;;;8.40;86.58;92364.81;4973635;28;19945;-77
2023/03/23 01:39:17;;;;;;;;;;;;;;;8.39;86.76;92371.88;4974938;28;20410;-77
2023/03/23 01:41:44;;;;;;;;;;;;;;;8.41;86.62;92371.66;4973482;28;19940;-77
2023/03/23 01:44:17;;;;;;;;;;;;;;;8.42;85.97;92366.16;4973647;28;20155;-76
2023/03/23 01:47:00;;;;;;;;;;;;;;;8.44;86.28;92368.47;4973233;28;19945;-77
2023/03/23 01:49:29;;;;;;;;;;;;;;;8.45;86.78;92365.59;4973055;28;19964;-77
2023/03/23 01:52:01;;;;;;;;;;;;;;;8.48;86.65;92365.03;4974208;28;19913;-77
2023/03/23 01:54:29;;;;;;;;;;;;;;;8.48;87.41;92357.22;4973227;28;20199;-77
2023/03/23 01:56:58;;;;;;;;;;;;;;;8.48;87.52;92353.84;4973171;28;20273;-76
2023/03/23 01:59:25;;;;;;;;;;;;;;;8.48;87.60;92353.84;4973269;28;20022;-77
2023/03/23 02:02:04;;;;;;;;;;;;;;;8.48;87.44;92354.59;4969070;28;20320;-77
2023/03/23 02:04:30;;;;;;;;;;;;;;;8.48;87.23;92348.63;4954107;29;19981;-77
2023/03/23 02:06:57;;;;;;;;;;;;;;;8.47;86.93;92345.25;4970035;28;19989;-77
2023/03/23 02:09:25;;;;;;;;;;;;;;;8.48;86.80;92344.19;4954606;28;19914;-77
2023/03/23 02:11:52;;;;;;;;;;;;;;;8.50;87.33;92346.50;4970223;28;19911;-77
2023/03/23 02:14:18;;;;;;;;;;;;;;;8.50;87.81;92342.06;4969958;28;20336;-77
2023/03/23 02:16:46;;;;;;;;;;;;;;;8.49;87.78;92339.75;4969855;28;19917;-77
2023/03/23 02:19:24;;;;;;;;;;;;;;;8.49;87.56;92343.13;4969835;28;19915;-78
2023/03/23 02:22:08;;;;;;;;;;;;;;;8.50;87.45;92339.47;4970037;28;20307;-78
2023/03/23 02:24:47;;;;;;;;;;;;;;;8.51;87.79;92342.84;4974367;28;19922;-77
2023/03/23 02:27:24;;;;;;;;;;;;;;;8.50;87.30;92336.84;4972963;28;20001;-77
2023/03/23 02:30:09;;;;;;;;;;;;;;;8.52;86.69;92333.97;4973130;28;19914;-78
2023/03/23 02:32:54;;;;;;;;;;;;;;;8.53;86.62;92332.91;4972581;28;19964;-77
2023/03/23 02:35:19;;;;;;;;;;;;;;;8.53;86.46;92330.31;4962851;28;19986;-78
2023/03/23 02:38:01;;;;;;;;;;;;;;;8.52;86.75;92339.97;4953441;29;20212;-77
2023/03/23 02:40:39;;;;;;;;;;;;;;;8.53;86.68;92331.09;4988627;28;19926;-77
2023/03/23 02:43:07;;;;;;;;;;;;;;;8.51;86.43;92329.78;4972457;28;19918;-77
2023/03/23 02:45:34;;;;;;;;;;;;;;;8.50;85.94;92336.84;4962654;28;20276;-77
2023/03/23 02:48:02;;;;;;;;;;;;;;;8.50;86.93;92331.63;4973768;28;19914;-77
2023/03/23 02:50:29;;;;;;;;;;;;;;;8.49;87.34;92334.53;4972414;28;19910;-77
2023/03/23 02:52:56;;;;;;;;;;;;;;;8.47;87.60;92342.63;4972382;28;20336;-77
2023/03/23 02:55:24;;;;;;;;;;;;;;;8.43;87.85;92331.19;4972452;28;19910;-77
2023/03/23 02:57:52;;;;;;;;;;;;;;;8.40;87.78;92336.97;4972273;28;19979;-77
2023/03/23 03:00:18;;;;;;;;;;;;;;;8.36;88.37;92333.31;4972067;28;20374;-76
2023/03/23 03:02:52;;;;;;;;;;;;;;;8.36;88.35;92337.75;4963447;28;19921;-77
2023/03/23 03:05:18;;;;;;;;;;;;;;;8.35;88.18;92334.34;4972256;28;20041;-77
2023/03/23 03:07:52;;;;;;;;;;;;;;;8.33;88.25;92332.03;4972025;28;19988;-77
2023/03/23 03:10:23;;;;;;;;;;;;;;;8.33;87.69;92336.47;4971934;28;19997;-78
2023/03/23 03:13:01;;;;;;;;;;;;;;;8.32;88.39;92340.13;4971890;28;20056;-77
2023/03/23 03:15:27;;;;;;;;;;;;;;;8.30;88.42;92345.63;4971939;28;19921;-77
2023/03/23 03:18:01;;;;;;;;;;;;;;;8.31;88.01;92343.81;4971987;28;19921;-77
2023/03/23 03:20:29;;;;;;;;;;;;;;;8.31;87.92;92341.19;4972952;28;20072;-77
2023/03/23 03:22:55;;;;;;;;;;;;;;;8.32;87.25;92334.91;4972001;28;19980;-77
2023/03/23 03:25:23;;;;;;;;;;;;;;;8.33;86.74;92334.66;4971718;28;19918;-77
2023/03/23 03:27:52;;;;;;;;;;;;;;;8.34;87.90;92332.81;4971768;28;19929;-77
2023/03/23 03:30:28;;;;;;;;;;;;;;;8.35;87.38;92339.56;4973125;28;20279;-77
2023/03/23 03:32:54;;;;;;;;;;;;;;;8.34;87.02;92349.22;4970830;28;20369;-77
2023/03/23 03:35:22;;;;;;;;;;;;;;;8.35;87.44;92350.00;4955606;28;19910;-77
2023/03/23 03:37:49;;;;;;;;;;;;;;;8.37;87.53;92347.13;4987985;28;19918;-77
2023/03/23 03:40:15;;;;;;;;;;;;;;;8.36;88.34;92348.97;4971515;28;19957;-77
2023/03/23 03:42:42;;;;;;;;;;;;;;;8.35;87.36;92350.00;4971500;28;19969;-77
2023/03/23 03:45:09;;;;;;;;;;;;;;;8.36;87.50;92354.19;4973094;28;19918;-77
2023/03/23 03:47:34;;;;;;;;;;;;;;;8.38;87.18;92348.69;4954895;28;19957;-77
2023/03/23 03:50:00;;;;;;;;;;;;;;;8.39;87.82;92345.03;4951817;29;19960;-77
2023/03/23 03:52:27;;;;;;;;;;;;;;;8.39;87.69;92350.25;4954640;28;19918;-77
2023/03/23 03:54:53;;;;;;;;;;;;;;;8.40;87.62;92346.56;4943442;28;20329;-77
2023/03/23 03:57:19;;;;;;;;;;;;;;;8.41;87.78;92348.94;4971584;28;19914;-77
2023/03/23 04:00:14;;;;;;;;;;;;;;;8.44;87.64;92343.16;4972732;28;19917;-77
2023/03/23 04:02:43;;;;;;;;;;;;;;;8.46;87.40;92348.88;4973024;28;19921;-77
2023/03/23 04:05:11;;;;;;;;;;;;;;;8.49;87.84;92350.97;4971507;28;19961;-77
2023/03/23 04:07:38;;;;;;;;;;;;;;;8.51;87.54;92353.28;4955618;28;20348;-77
2023/03/23 04:10:05;;;;;;;;;;;;;;;8.53;87.45;92348.56;4972875;28;19933;-77
2023/03/23 04:12:31;;;;;;;;;;;;;;;8.55;87.15;92352.44;4971473;28;19914;-78
2023/03/23 04:14:57;;;;;;;;;;;;;;;8.58;87.00;92353.75;4973042;28;20272;-77
2023/03/23 04:17:28;;;;;;;;;;;;;;;8.61;87.32;92349.81;4969159;28;19915;-77
2023/03/23 04:19:57;;;;;;;;;;;;;;;8.63;87.57;92353.69;4971565;28;19914;-77
2023/03/23 04:22:30;;;;;;;;;;;;;;;8.66;87.96;92360.94;4962403;28;19972;-77
2023/03/23 04:24:58;;;;;;;;;;;;;;;8.67;87.82;92359.13;4952106;29;19919;-77
2023/03/23 04:27:28;;;;;;;;;;;;;;;8.68;87.89;92358.09;4965425;28;20296;-77
2023/03/23 04:29:57;;;;;;;;;;;;;;;8.69;88.71;92364.84;4970170;28;19914;-77
2023/03/23 04:32:42;;;;;;;;;;;;;;;8.69;88.61;92359.63;4952956;29;19960;-77
2023/03/23 04:35:10;;;;;;;;;;;;;;;8.69;87.22;92365.63;4970299;28;19968;-77
2023/03/23 04:37:41;;;;;;;;;;;;;;;8.71;87.72;92365.34;4956093;28;19937;-77
2023/03/23 04:40:11;;;;;;;;;;;;;;;8.72;88.61;92364.31;4971283;28;20414;-77
2023/03/23 04:42:38;;;;;;;;;;;;;;;8.72;87.78;92364.31;4971372;28;19918;-77
2023/03/23 04:45:32;;;;;;;;;;;;;;;8.75;87.65;92363.75;4974767;28;20381;-77
2023/03/23 04:48:01;;;;;;;;;;;;;;;8.75;88.77;92361.13;4974823;28;19914;-78
2023/03/23 04:50:37;;;;;;;;;;;;;;;8.76;88.67;92365.31;4971835;28;20004;-77
2023/03/23 04:53:13;;;;;;;;;;;;;;;8.75;88.42;92358.53;4955646;29;20025;-77
2023/03/23 04:55:40;;;;;;;;;;;;;;;8.77;88.94;92366.84;4956631;29;20049;-78
2023/03/23 04:58:08;;;;;;;;;;;;;;;8.78;88.44;92365.81;4972494;28;19918;-77
2023/03/23 05:00:49;;;;;;;;;;;;;;;8.79;88.74;92359.53;4979026;28;20004;-77
2023/03/23 05:03:19;;;;;;;;;;;;;;;8.79;88.47;92363.97;4974731;28;20002;-77
2023/03/23 05:05:51;;;;;;;;;;;;;;;8.79;88.48;92356.91;4958600;28;20292;-77
2023/03/23 05:08:22;;;;;;;;;;;;;;;8.81;88.62;92364.47;4990657;28;19985;-77
2023/03/23 05:10:57;;;;;;;;;;;;;;;8.81;88.43;92362.63;4990477;28;19914;-78
2023/03/23 05:13:24;;;;;;;;;;;;;;;8.81;88.89;92360.03;4969806;28;20019;-77
2023/03/23 05:15:53;;;;;;;;;;;;;;;8.81;88.72;92357.41;4971570;28;19915;-78
2023/03/23 05:18:20;;;;;;;;;;;;;;;8.81;88.78;92356.66;4968520;28;20008;-78
2023/03/23 05:20:46;;;;;;;;;;;;;;;8.81;88.88;92351.44;4974270;28;19921;-78
2023/03/23 05:23:16;;;;;;;;;;;;;;;8.83;89.10;92355.31;4958723;28;20021;-77
2023/03/23 05:25:47;;;;;;;;;;;;;;;8.86;87.46;92346.91;4974233;28;19922;-78
2023/03/23 05:28:16;;;;;;;;;;;;;;;8.96;85.17;92352.03;4975261;28;19918;-75
2023/03/23 05:31:16;;;;;;;;;;;;;;;9.03;85.10;92348.28;4935107;29;20323;-78
2023/03/23 05:33:42;;;;;;;;;;;;;;;9.03;85.11;92343.88;4963044;28;19922;-78
2023/03/23 05:36:39;;;;;;;;;;;;;;;9.05;86.39;92338.34;4936083;28;20439;-78
2023/03/23 05:39:23;;;;;;;;;;;;;;;9.06;86.71;92342.53;4982553;28;19926;-78
2023/03/23 05:42:08;;;;;;;;;;;;;;;9.10;84.67;92333.84;4978438;28;19985;-77
2023/03/23 05:44:49;;;;;;;;;;;;;;;9.32;81.38;92330.69;4989273;28;19933;-79
2023/03/23 05:47:16;;;;;;;;;;;;;;;9.35;79.33;92327.53;4992882;28;20427;-79
2023/03/23 05:49:48;;;;;;;;;;;;;;;9.56;76.53;92327.25;4973742;28;19946;-79
2023/03/23 05:52:16;;;;;;;;;;;;;;;9.63;76.09;92327.66;4974455;28;20020;-79
2023/03/23 05:54:42;;;;;;;;;;;;;;;9.75;76.13;92332.47;4974177;28;20416;-79
2023/03/23 05:57:08;;;;;;;;;;;;;;;9.74;76.49;92334.28;4975590;28;19918;-79
2023/03/23 05:59:46;;;;;;;;;;;;;;;9.61;77.87;92340.22;4970789;28;19918;-79
2023/03/23 06:02:18;;;;;;;;;;;;;;;9.54;78.55;92337.19;4969059;28;19937;-79
2023/03/23 06:04:44;;;;;;;;;;;;;;;9.49;78.86;92345.09;4971202;28;19918;-80
2023/03/23 06:07:24;;;;;;;;;;;;;;;9.48;79.48;92349.56;4972268;28;19918;-82
2023/03/23 06:09:57;;;;;;;;;;;;;;;9.46;79.73;92351.69;4975136;28;20008;-80
2023/03/23 06:12:24;;;;;;;;;;;;;;;9.46;79.52;92346.47;4975931;28;20403;-78
2023/03/23 06:15:06;;;;;;;;;;;;;;;9.48;79.56;92346.16;4976609;28;19914;-78
2023/03/23 06:17:55;;;;;;;;;;;;;;;9.48;80.10;92343.53;4965751;28;19938;-79
2023/03/23 06:20:24;;;;;;;;;;;;;;;9.50;79.57;92347.44;4977889;28;19953;-80
2023/03/23 06:22:51;;;;;;;;;;;;;;;9.54;78.63;92352.88;4969229;28;19965;-79
2023/03/23 06:25:26;;;;;;;;;;;;;;;9.58;78.68;92354.63;4965423;28;19926;-78
2023/03/23 06:27:51;;;;;;;;;;;;;;;9.62;78.78;92357.47;4961461;28;19949;-78
2023/03/23 06:30:17;;;;;;;;;;;;;;;9.66;78.38;92361.09;4972480;28;20372;-78
2023/03/23 06:32:46;;;;;;;;;;;;;;;9.69;78.37;92365.72;4970438;28;19914;-78
2023/03/23 06:35:12;;;;;;;;;;;;;;;9.74;77.65;92365.66;4967424;28;20292;-78
2023/03/23 06:38:07;;;;;;;;;;;;;;;9.83;77.74;92370.25;4970721;28;20112;-78
2023/03/23 06:40:51;;;;;;;;;;;;;;;9.94;78.44;92372.44;4976494;28;19918;-79
2023/03/23 06:43:16;;;;;;;;;;;;;;;9.99;78.80;92376.81;4973508;28;20005;-78
2023/03/23 06:45:58;;;;;;;;;;;;;;;10.14;78.26;92376.56;4960638;28;19926;-78
2023/03/23 06:48:51;;;;;;;;;;;;;;;10.34;77.76;92382.59;4961316;28;19914;-79
2023/03/23 06:51:21;;;;;;;;;;;;;;;10.46;77.75;92377.66;4960623;28;20428;-79
2023/03/23 06:53:50;;;;;;;;;;;;;;;10.68;77.32;92378.88;4984120;28;20029;-79
2023/03/23 06:56:16;;;;;;;;;;;;;;;11.29;76.64;92371.72;4959760;28;20442;-78
2023/03/23 06:58:42;;;;;;;;;;;;;;;11.78;74.64;92367.56;4966329;28;19965;-78
2023/03/23 07:01:09;;;;;;;;;;;;;;;12.68;68.23;92370.22;4981436;28;20292;-78
2023/03/23 07:03:40;;;;;;;;;;;;;;;13.27;64.11;92372.63;4976011;28;20022;-78
2023/03/23 07:06:07;;;;;;;;;;;;;;;13.82;62.29;92372.13;4974861;28;19922;-77
2023/03/23 07:08:37;;;;;;;;;;;;;;;14.35;56.64;92378.19;4973236;28;19921;-78
2023/03/23 07:11:06;;;;;;;;;;;;;;;14.54;57.68;92380.47;4973830;28;19918;-78
2023/03/23 07:13:32;;;;;;;;;;;;;;;14.01;58.27;92382.38;4975162;28;19914;-79
2023/03/23 07:16:00;;;;;;;;;;;;;;;13.40;60.69;92389.41;4973384;28;19924;-79
2023/03/23 07:18:27;;;;;;;;;;;;;;;13.21;61.76;92390.38;4958110;28;19914;-77
2023/03/23 07:20:54;;;;;;;;;;;;;;;12.91;63.08;92397.22;4974627;28;19921;-77
2023/03/23 07:23:23;;;;;;;;;;;;;;;12.71;63.77;92390.63;4975568;28;19980;-80
2023/03/23 07:26:03;;;;;;;;;;;;;;;12.39;65.68;92396.91;4974216;28;19950;-80
2023/03/23 07:28:37;;;;;;;;;;;;;;;12.05;67.45;92403.47;4962445;28;19922;-79
2023/03/23 07:31:17;;;;;;;;;;;;;;;11.86;70.03;92400.94;4960976;28;19945;-79
2023/03/23 07:33:43;;;;;;;;;;;;;;;11.76;69.17;92409.81;4965193;28;19937;-79
2023/03/23 07:36:09;;;;;;;;;;;;;;;11.78;69.67;92405.06;4972467;28;19910;-80
2023/03/23 07:38:36;;;;;;;;;;;;;;;11.70;70.97;92403.13;4977087;28;19962;-79
2023/03/23 07:41:02;;;;;;;;;;;;;;;11.61;69.38;92404.88;4982819;28;20483;-77
2023/03/23 07:43:30;;;;;;;;;;;;;;;11.58;71.58;92408.09;4957806;28;19922;-79
2023/03/23 07:45:56;;;;;;;;;;;;;;;11.66;69.31;92407.41;4976764;28;19968;-79
2023/03/23 07:48:25;;;;;;;;;;;;;;;11.68;68.55;92410.50;4974425;28;19917;-79
2023/03/23 07:50:52;;;;;;;;;;;;;;;11.81;69.70;92417.56;4976181;28;19973;-79
2023/03/23 07:53:18;;;;;;;;;;;;;;;12.38;70.84;92411.88;4977188;28;19929;-79
2023/03/23 07:55:52;;;;;;;;;;;;;;;12.85;67.60;92419.44;4972191;28;19925;-77
2023/03/23 07:58:38;;;;;;;;;;;;;;;13.24;62.79;92423.16;4973776;28;19917;-78
2023/03/23 08:01:06;;;;;;;;;;;;;;;13.45;61.98;92421.56;4976642;28;20000;-77
2023/03/23 08:03:33;;;;;;;;;;;;;;;13.80;60.65;92423.50;4976685;28;20012;-79
2023/03/23 08:06:17;;;;;;;;;;;;;;;13.88;58.83;92422.75;4977151;28;19953;-78
2023/03/23 08:09:07;;;;;;;;;;;;;;;13.73;59.31;92421.31;4977368;28;19998;-78
2023/03/23 08:11:51;;;;;;;;;;;;;;;13.70;59.31;92427.97;4968967;28;19933;-78
2023/03/23 08:14:44;;;;;;;;;;;;;;;14.05;60.04;92427.25;4956990;28;19914;-80
2023/03/23 08:17:40;;;;;;;;;;;;;;;13.86;62.06;92428.31;4966186;28;19918;-79
2023/03/23 08:20:25;;;;;;;;;;;;;;;13.84;62.24;92425.22;4975085;28;20380;-79
2023/03/23 08:22:55;;;;;;;;;;;;;;;13.93;60.07;92436.53;4979090;28;20005;-79
2023/03/23 08:25:51;;;;;;;;;;;;;;;14.32;61.70;92432.25;4975304;28;19976;-79
2023/03/23 08:28:19;;;;;;;;;;;;;;;14.41;58.63;92434.06;4970446;28;20400;-78
2023/03/23 08:31:11;;;;;;;;;;;;;;;14.49;58.04;92443.84;4962250;28;19933;-79
2023/03/23 08:33:58;;;;;;;;;;;;;;;15.07;58.04;92445.19;4977807;28;19921;-79
2023/03/23 08:36:37;;;;;;;;;;;;;;;15.15;56.60;92449.66;4964997;28;19919;-81
2023/03/23 08:39:12;;;;;;;;;;;;;;;15.26;55.77;92444.81;4972163;28;20392;-79
2023/03/23 08:41:56;;;;;;;;;;;;;;;15.06;56.92;92446.25;4978560;28;20411;-80
2023/03/23 08:44:40;;;;;;;;;;;;;;;14.58;58.42;92442.78;4977908;28;19942;-80
2023/03/23 08:47:16;;;;;;;;;;;;;;;14.46;60.09;92452.38;4978107;28;19928;-80
2023/03/23 08:50:13;;;;;;;;;;;;;;;14.47;60.87;92446.78;4976577;28;20005;-79
2023/03/23 08:53:18;;;;;;;;;;;;;;;14.40;60.07;92443.06;4969500;28;19928;-80
2023/03/23 08:55:47;;;;;;;;;;;;;;;14.24;60.17;92440.91;4965724;28;19918;-79
2023/03/23 08:58:33;;;;;;;;;;;;;;;14.44;60.22;92442.13;4977722;28;19918;-80
2023/03/23 09:00:59;;;;;;;;;;;;;;;14.36;60.36;92445.53;4976478;28;19977;-80
2023/03/23 09:03:48;;;;;;;;;;;;;;;14.45;58.99;92442.91;4950132;28;20012;-79
2023/03/23 09:06:45;;;;;;;;;;;;;;;14.35;59.76;92444.78;4970813;28;19945;-79
2023/03/23 09:09:11;;;;;;;;;;;;;;;14.49;58.09;92443.84;4966290;28;19969;-80
2023/03/23 09:11:41;;;;;;;;;;;;;;;14.61;57.65;92440.59;4965017;28;19918;-80
2023/03/23 09:14:07;;;;;;;;;;;;;;;14.27;58.17;92435.00;4973384;28;19921;-79
2023/03/23 09:16:34;;;;;;;;;;;;;;;14.16;59.84;92441.66;4974494;28;19924;-80
2023/03/23 09:19:00;;;;;;;;;;;;;;;14.35;58.90;92442.13;4979943;28;19918;-79
2023/03/23 09:21:27;;;;;;;;;;;;;;;14.40;57.55;92437.81;4980274;28;19918;-80
2023/03/23 09:23:52;;;;;;;;;;;;;;;14.97;57.66;92440.22;4979095;28;19945;-80
2023/03/23 09:26:19;;;;;;;;;;;;;;;15.39;56.62;92435.16;4977999;28;20296;-80
2023/03/23 09:28:45;;;;;;;;;;;;;;;15.39;54.16;92435.16;4977999;28;19921;-79
2023/03/23 09:31:11;;;;;;;;;;;;;;;15.47;54.32;92437.00;4978398;28;19922;-79
2023/03/23 09:33:37;;;;;;;;;;;;;;;15.70;54.05;92434.84;4977648;28;19957;-79
2023/03/23 09:36:04;;;;;;;;;;;;;;;15.89;54.18;92436.31;4978573;28;19921;-80
2023/03/23 09:38:32;;;;;;;;;;;;;;;15.43;52.12;92438.69;4971665;28;20373;-80
2023/03/23 09:41:02;;;;;;;;;;;;;;;15.30;52.90;92443.09;4970284;28;19982;-79
2023/03/23 09:43:46;;;;;;;;;;;;;;;15.33;54.88;92436.41;4974335;28;19917;-80
2023/03/23 09:46:12;;;;;;;;;;;;;;;15.27;54.92;92437.69;4978123;28;19918;-81
2023/03/23 09:48:37;;;;;;;;;;;;;;;15.26;54.71;92433.50;4950061;28;19914;-80
2023/03/23 09:51:18;;;;;;;;;;;;;;;15.58;53.46;92438.19;4966702;28;19914;-80
2023/03/23 09:53:48;;;;;;;;;;;;;;;15.15;54.86;92433.84;4972680;28;19914;-80
2023/03/23 09:56:15;;;;;;;;;;;;;;;15.01;55.60;92435.13;4968876;28;20391;-80
2023/03/23 09:59:02;;;;;;;;;;;;;;;14.97;52.86;92446.31;4978159;28;19914;-80
2023/03/23 10:01:32;;;;;;;;;;;;;;;14.97;54.52;92445.50;4974587;28;19914;-80
2023/03/23 10:04:18;;;;;;;;;;;;;;;15.17;55.31;92444.81;4970146;28;19913;-79
2023/03/23 10:06:45;;;;;;;;;;;;;;;15.02;54.66;92439.28;4976259;28;19925;-77
2023/03/23 10:09:14;;;;;;;;;;;;;;;15.23;53.47;92444.69;4976411;28;19926;-79
2023/03/23 10:11:59;;;;;;;;;;;;;;;15.41;55.97;92448.78;4977291;28;19921;-79
2023/03/23 10:14:24;;;;;;;;;;;;;;;15.31;54.81;92449.13;4976910;28;19914;-78
2023/03/23 10:16:56;;;;;;;;;;;;;;;15.32;56.32;92450.69;4977975;28;20265;-78
2023/03/23 10:19:43;;;;;;;;;;;;;;;15.09;56.35;92448.28;4976083;28;19913;-78
2023/03/23 10:22:10;;;;;;;;;;;;;;;15.21;55.79;92455.53;4973438;28;21461;-78
2023/03/23 10:24:39;;;;;;;;;;;;;;;15.93;52.78;92448.56;4976295;28;19914;-79
2023/03/23 10:27:23;;;;;;;;;;;;;;;16.35;52.49;92443.31;4972970;28;20077;-79
2023/03/23 10:30:07;;;;;;;;;;;;;;;16.34;51.17;92441.78;4972912;28;19914;-78
2023/03/23 10:32:56;;;;;;;;;;;;;;;16.10;53.93;92436.34;4965479;28;19918;-79
2023/03/23 10:35:40;;;;;;;;;;;;;;;15.79;51.43;92440.13;4975737;28;19937;-79
2023/03/23 10:38:11;;;;;;;;;;;;;;;15.59;52.06;92437.06;4975231;28;19918;-79
2023/03/23 10:40:50;;;;;;;;;;;;;;;15.58;52.79;92432.91;4965173;28;20286;-81
2023/03/23 10:43:17;;;;;;;;;;;;;;;15.34;52.83;92432.69;4970509;28;20351;-80
2023/03/23 10:45:44;;;;;;;;;;;;;;;15.02;53.32;92431.38;4973943;28;19922;-80
2023/03/23 10:48:10;;;;;;;;;;;;;;;14.87;54.36;92425.53;4968453;28;19981;-79
2023/03/23 10:50:37;;;;;;;;;;;;;;;15.01;53.60;92435.88;4969793;28;19914;-79
2023/03/23 10:53:10;;;;;;;;;;;;;;;15.16;53.04;92418.78;4969778;28;19933;-80
2023/03/23 10:55:40;;;;;;;;;;;;;;;15.55;52.78;92422.97;4978855;28;19913;-80
2023/03/23 10:58:09;;;;;;;;;;;;;;;15.80;50.67;92415.25;4969756;28;19914;-79
2023/03/23 11:00:41;;;;;;;;;;;;;;;16.10;50.75;92415.22;4966218;28;19910;-80
2023/03/23 11:03:22;;;;;;;;;;;;;;;16.19;50.20;92413.31;4974951;28;19929;-79
2023/03/23 11:05:50;;;;;;;;;;;;;;;16.51;49.62;92411.03;4970726;28;19918;-80
2023/03/23 11:08:18;;;;;;;;;;;;;;;16.68;50.56;92413.50;4964512;28;19910;-80
2023/03/23 11:10:52;;;;;;;;;;;;;;;16.73;49.62;92410.69;4977372;28;19914;-78
2023/03/23 11:13:19;;;;;;;;;;;;;;;16.71;50.09;92407.59;4976033;28;19924;-80
2023/03/23 11:15:46;;;;;;;;;;;;;;;16.75;49.30;92397.91;4974041;28;19965;-80
2023/03/23 11:18:11;;;;;;;;;;;;;;;16.91;49.47;92405.25;4976972;28;20000;-80
2023/03/23 11:20:39;;;;;;;;;;;;;;;16.30;48.58;92401.28;4968718;28;19929;-80
2023/03/23 11:23:24;;;;;;;;;;;;;;;16.37;49.25;92396.22;4977294;28;19933;-80
2023/03/23 11:25:53;;;;;;;;;;;;;;;16.28;48.57;92400.03;4972555;28;19918;-80
2023/03/23 11:28:19;;;;;;;;;;;;;;;16.67;49.21;92393.47;4977438;28;19956;-80
2023/03/23 11:30:44;;;;;;;;;;;;;;;16.73;48.26;92388.75;4974227;28;19910;-80
2023/03/23 11:33:10;;;;;;;;;;;;;;;16.64;47.84;92386.22;4977032;28;20312;-80
2023/03/23 11:35:36;;;;;;;;;;;;;;;16.53;49.40;92390.34;4982388;28;20021;-80
2023/03/23 11:38:02;;;;;;;;;;;;;;;16.44;48.25;92390.44;4976715;28;19969;-79
2023/03/23 11:40:29;;;;;;;;;;;;;;;16.58;48.78;92388.28;4971907;28;19929;-81
2023/03/23 11:43:10;;;;;;;;;;;;;;;16.46;47.94;92385.59;4969450;28;20289;-80
2023/03/23 11:45:52;;;;;;;;;;;;;;;16.85;47.97;92397.53;4972589;28;19918;-80
2023/03/23 11:48:36;;;;;;;;;;;;;;;16.52;48.18;92380.88;4977111;28;19997;-80
2023/03/23 11:51:20;;;;;;;;;;;;;;;16.59;48.34;92384.53;4977138;28;19924;-80
2023/03/23 11:54:10;;;;;;;;;;;;;;;16.83;48.08;92388.38;4990080;28;19953;-80
2023/03/23 11:56:37;;;;;;;;;;;;;;;16.47;47.86;92378.44;4974838;28;19922;-80
2023/03/23 11:59:04;;;;;;;;;;;;;;;16.31;48.23;92389.59;4974642;28;19922;-79
2023/03/23 12:01:33;;;;;;;;;;;;;;;16.49;47.81;92389.47;4962161;28;20001;-79
2023/03/23 12:03:59;;;;;;;;;;;;;;;16.38;48.01;92386.44;4955658;29;19915;-80
2023/03/23 12:06:39;;;;;;;;;;;;;;;16.69;49.12;92383.34;4983717;28;19943;-80
2023/03/23 12:09:14;;;;;;;;;;;;;;;16.78;48.71;92389.31;4963192;28;19914;-80
2023/03/23 12:11:43;;;;;;;;;;;;;;;17.00;48.35;92384.75;4957885;28;19919;-80
2023/03/23 12:14:29;;;;;;;;;;;;;;;16.99;47.36;92385.88;4976925;28;19921;-81
2023/03/23 12:17:17;;;;;;;;;;;;;;;16.84;48.23;92381.97;4971165;28;19914;-79
2023/03/23 12:19:52;;;;;;;;;;;;;;;16.70;47.48;92374.31;4975352;28;19918;-79
2023/03/23 12:22:35;;;;;;;;;;;;;;;16.95;47.90;92367.25;4967177;28;19917;-79
2023/03/23 12:25:19;;;;;;;;;;;;;;;16.79;47.60;92377.66;4967257;28;19914;-80
2023/03/23 12:28:06;;;;;;;;;;;;;;;17.09;47.99;92364.31;4974816;28;20012;-79
2023/03/23 12:30:50;;;;;;;;;;;;;;;17.03;46.72;92355.03;4974409;28;19914;-80
2023/03/23 12:33:15;;;;;;;;;;;;;;;16.41;47.61;92354.06;4971835;28;20376;-80
2023/03/23 12:36:00;;;;;;;;;;;;;;;16.63;49.01;92355.59;4977567;28;19958;-80
2023/03/23 12:38:28;;;;;;;;;;;;;;;16.88;47.92;92348.50;4967903;28;19961;-80
2023/03/23 12:41:02;;;;;;;;;;;;;;;16.63;47.82;92351.06;4971826;28;19914;-80
2023/03/23 12:43:27;;;;;;;;;;;;;;;16.41;49.79;92349.59;4956431;29;19922;-80
2023/03/23 12:45:53;;;;;;;;;;;;;;;16.54;49.72;92344.31;4974761;28;19918;-80
2023/03/23 12:48:23;;;;;;;;;;;;;;;16.62;48.91;92351.41;4975642;28;19961;-79
2023/03/23 12:50:57;;;;;;;;;;;;;;;16.93;48.63;92343.03;4972619;28;20368;-80
2023/03/23 12:53:27;;;;;;;;;;;;;;;17.05;48.73;92336.97;4955887;29;19914;-79
2023/03/23 12:56:15;;;;;;;;;;;;;;;17.15;47.89;92333.13;4962742;28;19929;-80
2023/03/23 12:58:53;;;;;;;;;;;;;;;16.88;48.63;92334.53;4972661;28;19914;-80
2023/03/23 13:01:24;;;;;;;;;;;;;;;16.94;48.48;92335.84;4971163;28;19915;-79
2023/03/23 13:03:56;;;;;;;;;;;;;;;17.06;48.98;92328.69;4968992;28;19924;-80
2023/03/23 13:06:34;;;;;;;;;;;;;;;16.86;48.91;92332.19;4976803;28;19917;-80
2023/03/23 13:09:12;;;;;;;;;;;;;;;17.09;48.58;92326.50;4978253;28;20368;-81
2023/03/23 13:11:38;;;;;;;;;;;;;;;17.41;47.93;92327.50;4977098;28;19914;-81
2023/03/23 13:14:21;;;;;;;;;;;;;;;16.86;47.77;92324.28;4977384;28;20029;-80
2023/03/23 13:17:02;;;;;;;;;;;;;;;16.96;47.68;92329.13;4977753;28;19918;-80
2023/03/23 13:19:46;;;;;;;;;;;;;;;16.93;47.84;92331.66;4978079;28;19941;-80